sensor_id;sensor_type;location;lat;lon;timestamp;pressure;altitude;pressure_sealevel;temperature;humidity
85545;BME280;75982;52.834;13.846;2024-02-23T00:01:32;97931.34;;;9.82;92.30
85545;BME280;75982;52.834;13.846;2024-02-23T00:03:59;97932.44;;;9.80;92.56
85545;BME280;75982;52.834;13.846;2024-02-23T00:06:26;97927.78;;;9.83;91.84
85545;BME280;75982;52.834;13.846;2024-02-23T00:08:52;97932.16;;;9.83;91.67
85545;BME280;75982;52.834;13.846;2024-02-23T00:11:19;97933.56;;;9.77;91.99
85545;BME280;75982;52.834;13.846;2024-02-23T00:13:48;97936.16;;;9.77;91.87
85545;BME280;75982;52.834;13.846;2024-02-23T00:16:14;97937.13;;;9.76;91.98
85545;BME280;75982;52.834;13.846;2024-02-23T00:18:41;97934.53;;;9.76;91.91
85545;BME280;75982;52.834;13.846;2024-02-23T00:21:08;97931.09;;;9.76;91.88
85545;BME280;75982;52.834;13.846;2024-02-23T00:23:35;97927.38;;;9.78;91.86
85545;BME280;75982;52.834;13.846;2024-02-23T00:26:01;97930.53;;;9.82;91.45
85545;BME280;75982;52.834;13.846;2024-02-23T00:28:28;97924.78;;;9.78;91.54
85545;BME280;75982;52.834;13.846;2024-02-23T00:30:57;97921.91;;;9.81;91.19
85545;BME280;75982;52.834;13.846;2024-02-23T00:33:23;97927.88;;;9.91;90.66
85545;BME280;75982;52.834;13.846;2024-02-23T00:35:50;97928.03;;;9.90;90.62
85545;BME280;75982;52.834;13.846;2024-02-23T00:38:17;97926.94;;;9.92;90.41
85545;BME280;75982;52.834;13.846;2024-02-23T00:40:44;97918.97;;;9.94;90.32
85545;BME280;75982;52.834;13.846;2024-02-23T00:43:11;97919.41;;;9.89;90.40
85545;BME280;75982;52.834;13.846;2024-02-23T00:45:37;97921.19;;;9.89;90.38
85545;BME280;75982;52.834;13.846;2024-02-23T00:48:06;97914.22;;;9.89;90.26
85545;BME280;75982;52.834;13.846;2024-02-23T00:50:33;97916.25;;;9.86;90.47
85545;BME280;75982;52.834;13.846;2024-02-23T00:53:00;97906.00;;;9.84;90.40
85545;BME280;75982;52.834;13.846;2024-02-23T00:55:27;97916.72;;;9.81;90.60
85545;BME280;75982;52.834;13.846;2024-02-23T00:57:54;97916.41;;;9.84;90.13
85545;BME280;75982;52.834;13.846;2024-02-23T01:00:20;97910.94;;;9.87;90.04
85545;BME280;75982;52.834;13.846;2024-02-23T01:02:47;97912.88;;;9.85;89.97
85545;BME280;75982;52.834;13.846;2024-02-23T01:05:15;97917.25;;;9.85;89.78
85545;BME280;75982;52.834;13.846;2024-02-23T01:07:42;97909.28;;;9.86;89.70
85545;BME280;75982;52.834;13.846;2024-02-23T01:10:09;97913.00;;;9.84;89.52
85545;BME280;75982;52.834;13.846;2024-02-23T01:12:36;97915.72;;;9.82;89.50
85545;BME280;75982;52.834;13.846;2024-02-23T01:15:03;97908.31;;;9.87;89.37
85545;BME280;75982;52.834;13.846;2024-02-23T01:17:31;97909.97;;;9.88;89.14
85545;BME280;75982;52.834;13.846;2024-02-23T01:19:59;97913.53;;;9.87;89.19
85545;BME280;75982;52.834;13.846;2024-02-23T01:22:27;97917.25;;;9.85;88.90
85545;BME280;75982;52.834;13.846;2024-02-23T01:24:54;97922.03;;;9.89;88.90
85545;BME280;75982;52.834;13.846;2024-02-23T01:27:20;97934.03;;;9.90;88.80
85545;BME280;75982;52.834;13.846;2024-02-23T01:29:48;97925.94;;;9.93;88.50
85545;BME280;75982;52.834;13.846;2024-02-23T01:32:14;97938.00;;;9.94;88.53
85545;BME280;75982;52.834;13.846;2024-02-23T01:34:41;97938.16;;;9.93;88.50
85545;BME280;75982;52.834;13.846;2024-02-23T01:37:08;97926.94;;;9.92;88.09
85545;BME280;75982;52.834;13.846;2024-02-23T01:39:36;97955.25;;;9.95;88.17
85545;BME280;75982;52.834;13.846;2024-02-23T01:42:04;97944.84;;;9.95;87.93
85545;BME280;75982;52.834;13.846;2024-02-23T01:44:30;97949.75;;;9.98;87.56
85545;BME280;75982;52.834;13.846;2024-02-23T01:46:58;97964.13;;;10.02;87.41
85545;BME280;75982;52.834;13.846;2024-02-23T01:49:25;97975.66;;;10.00;87.58
85545;BME280;75982;52.834;13.846;2024-02-23T01:51:52;97978.78;;;10.03;87.22
85545;BME280;75982;52.834;13.846;2024-02-23T01:54:18;97983.16;;;10.03;87.16
85545;BME280;75982;52.834;13.846;2024-02-23T01:56:47;97987.56;;;10.02;87.14
85545;BME280;75982;52.834;13.846;2024-02-23T01:59:13;97996.31;;;10.01;87.20
85545;BME280;75982;52.834;13.846;2024-02-23T02:01:42;98011.81;;;10.03;86.71
85545;BME280;75982;52.834;13.846;2024-02-23T02:04:09;98009.84;;;10.05;86.63
85545;BME280;75982;52.834;13.846;2024-02-23T02:06:37;98012.34;;;10.06;86.28
85545;BME280;75982;52.834;13.846;2024-02-23T02:09:03;98013.72;;;10.01;86.37
85545;BME280;75982;52.834;13.846;2024-02-23T02:11:30;98028.25;;;10.03;86.05
85545;BME280;75982;52.834;13.846;2024-02-23T02:13:59;98024.22;;;10.09;85.13
85545;BME280;75982;52.834;13.846;2024-02-23T02:16:25;98034.94;;;10.16;84.24
85545;BME280;75982;52.834;13.846;2024-02-23T02:18:52;98042.59;;;10.17;83.87
85545;BME280;75982;52.834;13.846;2024-02-23T02:21:19;98051.34;;;10.16;83.96
85545;BME280;75982;52.834;13.846;2024-02-23T02:23:46;98061.06;;;10.14;83.70
85545;BME280;75982;52.834;13.846;2024-02-23T02:26:12;98058.91;;;10.19;82.99
85545;BME280;75982;52.834;13.846;2024-02-23T02:28:39;98080.28;;;10.23;82.78
85545;BME280;75982;52.834;13.846;2024-02-23T02:31:09;98106.13;;;10.24;82.47
85545;BME280;75982;52.834;13.846;2024-02-23T02:33:36;98103.28;;;10.27;82.42
85545;BME280;75982;52.834;13.846;2024-02-23T02:36:03;98114.34;;;10.29;81.53
85545;BME280;75982;52.834;13.846;2024-02-23T02:38:29;98111.19;;;10.35;81.01
85545;BME280;75982;52.834;13.846;2024-02-23T02:40:56;98112.41;;;10.41;79.43
85545;BME280;75982;52.834;13.846;2024-02-23T02:43:23;98121.72;;;10.43;79.30
85545;BME280;75982;52.834;13.846;2024-02-23T02:45:50;98138.97;;;10.44;78.93
85545;BME280;75982;52.834;13.846;2024-02-23T02:48:18;98140.22;;;10.40;78.39
85545;BME280;75982;52.834;13.846;2024-02-23T02:50:45;98139.03;;;10.35;77.61
85545;BME280;75982;52.834;13.846;2024-02-23T02:53:12;98144.06;;;10.36;77.23
85545;BME280;75982;52.834;13.846;2024-02-23T02:55:41;98175.06;;;10.30;77.12
85545;BME280;75982;52.834;13.846;2024-02-23T02:58:08;98178.91;;;10.26;77.34
85545;BME280;75982;52.834;13.846;2024-02-23T03:00:35;98188.25;;;10.19;77.26
85545;BME280;75982;52.834;13.846;2024-02-23T03:03:02;98189.06;;;10.19;76.88
85545;BME280;75982;52.834;13.846;2024-02-23T03:05:30;98188.78;;;10.22;71.67
85545;BME280;75982;52.834;13.846;2024-02-23T03:07:57;98192.06;;;10.24;69.23
85545;BME280;75982;52.834;13.846;2024-02-23T03:10:24;98196.34;;;10.16;69.92
85545;BME280;75982;52.834;13.846;2024-02-23T03:12:50;98195.75;;;10.12;67.74
85545;BME280;75982;52.834;13.846;2024-02-23T03:15:17;98205.88;;;10.05;67.87
85545;BME280;75982;52.834;13.846;2024-02-23T03:17:44;98231.22;;;10.03;64.59
85545;BME280;75982;52.834;13.846;2024-02-23T03:20:11;98215.91;;;10.00;64.58
85545;BME280;75982;52.834;13.846;2024-02-23T03:22:39;98232.03;;;9.94;61.55
85545;BME280;75982;52.834;13.846;2024-02-23T03:25:06;98208.63;;;9.85;62.16
85545;BME280;75982;52.834;13.846;2024-02-23T03:27:34;98246.41;;;9.79;61.73
85545;BME280;75982;52.834;13.846;2024-02-23T03:30:01;98261.63;;;9.74;61.52
85545;BME280;75982;52.834;13.846;2024-02-23T03:32:28;98262.84;;;9.70;60.75
85545;BME280;75982;52.834;13.846;2024-02-23T03:34:55;98287.03;;;9.61;61.75
85545;BME280;75982;52.834;13.846;2024-02-23T03:37:21;98286.88;;;9.53;62.57
85545;BME280;75982;52.834;13.846;2024-02-23T03:39:49;98298.88;;;9.44;62.31
85545;BME280;75982;52.834;13.846;2024-02-23T03:42:16;98296.25;;;9.35;62.68
85545;BME280;75982;52.834;13.846;2024-02-23T03:44:43;98307.06;;;9.30;62.35
85545;BME280;75982;52.834;13.846;2024-02-23T03:47:10;98309.63;;;9.21;63.88
85545;BME280;75982;52.834;13.846;2024-02-23T03:49:36;98314.94;;;9.19;64.20
85545;BME280;75982;52.834;13.846;2024-02-23T03:52:04;98323.38;;;9.11;65.18
85545;BME280;75982;52.834;13.846;2024-02-23T03:54:31;98330.72;;;9.06;64.60
85545;BME280;75982;52.834;13.846;2024-02-23T03:56:59;98329.94;;;9.06;64.81
85545;BME280;75982;52.834;13.846;2024-02-23T03:59:25;98333.47;;;9.05;65.41
85545;BME280;75982;52.834;13.846;2024-02-23T04:01:52;98330.44;;;9.00;64.97
85545;BME280;75982;52.834;13.846;2024-02-23T04:04:19;98337.19;;;8.91;65.70
85545;BME280;75982;52.834;13.846;2024-02-23T04:06:46;98337.34;;;8.90;65.07
85545;BME280;75982;52.834;13.846;2024-02-23T04:09:13;98347.28;;;8.85;64.72
85545;BME280;75982;52.834;13.846;2024-02-23T04:11:39;98349.31;;;8.81;65.43
85545;BME280;75982;52.834;13.846;2024-02-23T04:14:07;98357.47;;;8.77;64.78
85545;BME280;75982;52.834;13.846;2024-02-23T04:16:34;98366.72;;;8.69;64.83
85545;BME280;75982;52.834;13.846;2024-02-23T04:19:01;98373.53;;;8.61;65.28
85545;BME280;75982;52.834;13.846;2024-02-23T04:21:28;98374.25;;;8.73;64.60
85545;BME280;75982;52.834;13.846;2024-02-23T04:23:54;98380.84;;;8.77;64.93
85545;BME280;75982;52.834;13.846;2024-02-23T04:26:21;98393.22;;;8.63;65.19
85545;BME280;75982;52.834;13.846;2024-02-23T04:28:48;98397.00;;;8.59;64.88
85545;BME280;75982;52.834;13.846;2024-02-23T04:31:17;98390.63;;;8.63;63.32
85545;BME280;75982;52.834;13.846;2024-02-23T04:33:44;98411.44;;;8.52;64.53
85545;BME280;75982;52.834;13.846;2024-02-23T04:36:11;98415.44;;;8.56;63.59
85545;BME280;75982;52.834;13.846;2024-02-23T04:38:38;98420.63;;;8.56;63.61
85545;BME280;75982;52.834;13.846;2024-02-23T04:41:05;98424.28;;;8.54;63.64
85545;BME280;75982;52.834;13.846;2024-02-23T04:43:32;98434.91;;;8.51;63.37
85545;BME280;75982;52.834;13.846;2024-02-23T04:45:59;98436.31;;;8.55;63.26
85545;BME280;75982;52.834;13.846;2024-02-23T04:48:27;98440.72;;;8.43;64.00
85545;BME280;75982;52.834;13.846;2024-02-23T04:50:54;98450.75;;;8.37;62.86
85545;BME280;75982;52.834;13.846;2024-02-23T04:53:20;98473.53;;;8.33;63.69
85545;BME280;75982;52.834;13.846;2024-02-23T04:55:47;98470.22;;;8.42;62.78
85545;BME280;75982;52.834;13.846;2024-02-23T04:58:14;98468.44;;;8.43;63.35
85545;BME280;75982;52.834;13.846;2024-02-23T05:00:41;98479.31;;;8.37;64.03
85545;BME280;75982;52.834;13.846;2024-02-23T05:03:07;98476.38;;;8.30;64.19
85545;BME280;75982;52.834;13.846;2024-02-23T05:05:39;98490.19;;;8.31;62.94
85545;BME280;75982;52.834;13.846;2024-02-23T05:08:07;98494.66;;;8.40;63.08
85545;BME280;75982;52.834;13.846;2024-02-23T05:10:34;98494.97;;;8.46;61.97
85545;BME280;75982;52.834;13.846;2024-02-23T05:13:00;98501.97;;;8.46;62.14
85545;BME280;75982;52.834;13.846;2024-02-23T05:15:27;98513.41;;;8.43;61.82
85545;BME280;75982;52.834;13.846;2024-02-23T05:17:54;98523.94;;;8.31;62.73
85545;BME280;75982;52.834;13.846;2024-02-23T05:20:20;98530.41;;;8.36;62.89
85545;BME280;75982;52.834;13.846;2024-02-23T05:22:48;98536.44;;;8.37;62.35
85545;BME280;75982;52.834;13.846;2024-02-23T05:25:15;98545.88;;;8.38;63.46
85545;BME280;75982;52.834;13.846;2024-02-23T05:27:42;98568.84;;;8.42;62.68
85545;BME280;75982;52.834;13.846;2024-02-23T05:30:10;98562.97;;;8.51;61.44
85545;BME280;75982;52.834;13.846;2024-02-23T05:32:37;98558.59;;;8.52;62.09
85545;BME280;75982;52.834;13.846;2024-02-23T05:35:05;98562.03;;;8.41;62.09
85545;BME280;75982;52.834;13.846;2024-02-23T05:37:32;98575.47;;;8.35;61.18
85545;BME280;75982;52.834;13.846;2024-02-23T05:40:00;98562.97;;;8.29;61.18
85545;BME280;75982;52.834;13.846;2024-02-23T05:42:27;98586.16;;;8.19;59.88
85545;BME280;75982;52.834;13.846;2024-02-23T05:44:54;98584.63;;;8.06;60.35
85545;BME280;75982;52.834;13.846;2024-02-23T05:47:21;98605.03;;;7.99;60.33
85545;BME280;75982;52.834;13.846;2024-02-23T05:49:49;98614.09;;;7.94;59.58
85545;BME280;75982;52.834;13.846;2024-02-23T05:52:15;98615.13;;;7.80;59.70
85545;BME280;75982;52.834;13.846;2024-02-23T05:54:42;98643.28;;;7.73;58.95
85545;BME280;75982;52.834;13.846;2024-02-23T05:57:10;98658.19;;;7.59;60.39
85545;BME280;75982;52.834;13.846;2024-02-23T05:59:37;98666.31;;;7.54;60.81
85545;BME280;75982;52.834;13.846;2024-02-23T06:02:04;98666.03;;;7.46;60.20
85545;BME280;75982;52.834;13.846;2024-02-23T06:04:31;98676.13;;;7.38;61.07
85545;BME280;75982;52.834;13.846;2024-02-23T06:06:57;98674.69;;;7.34;60.67
85545;BME280;75982;52.834;13.846;2024-02-23T06:09:24;98692.75;;;7.23;62.12
85545;BME280;75982;52.834;13.846;2024-02-23T06:11:51;98689.72;;;7.29;61.15
85545;BME280;75982;52.834;13.846;2024-02-23T06:14:20;98687.28;;;7.15;61.53
85545;BME280;75982;52.834;13.846;2024-02-23T06:16:46;98698.03;;;7.21;62.25
85545;BME280;75982;52.834;13.846;2024-02-23T06:19:13;98709.34;;;7.20;62.18
85545;BME280;75982;52.834;13.846;2024-02-23T06:21:40;98726.34;;;7.24;61.81
85545;BME280;75982;52.834;13.846;2024-02-23T06:24:07;98732.16;;;7.15;62.30
85545;BME280;75982;52.834;13.846;2024-02-23T06:26:34;98744.28;;;7.15;62.56
85545;BME280;75982;52.834;13.846;2024-02-23T06:29:01;98751.66;;;7.08;63.06
85545;BME280;75982;52.834;13.846;2024-02-23T06:31:29;98756.84;;;6.96;63.28
85545;BME280;75982;52.834;13.846;2024-02-23T06:33:56;98776.72;;;6.95;63.92
85545;BME280;75982;52.834;13.846;2024-02-23T06:36:22;98779.22;;;6.97;63.35
85545;BME280;75982;52.834;13.846;2024-02-23T06:38:49;98794.84;;;6.95;63.93
85545;BME280;75982;52.834;13.846;2024-02-23T06:41:16;98804.41;;;6.95;63.53
85545;BME280;75982;52.834;13.846;2024-02-23T06:43:43;98810.72;;;6.91;63.70
85545;BME280;75982;52.834;13.846;2024-02-23T06:46:10;98822.22;;;6.87;64.09
85545;BME280;75982;52.834;13.846;2024-02-23T06:48:38;98817.97;;;6.86;64.06
85545;BME280;75982;52.834;13.846;2024-02-23T06:51:06;98816.59;;;6.80;63.81
85545;BME280;75982;52.834;13.846;2024-02-23T06:53:36;98835.56;;;6.81;64.59
85545;BME280;75982;52.834;13.846;2024-02-23T06:56:03;98842.72;;;6.77;64.11
85545;BME280;75982;52.834;13.846;2024-02-23T06:58:30;98855.16;;;6.85;64.86
85545;BME280;75982;52.834;13.846;2024-02-23T07:00:57;98836.41;;;6.94;63.34
85545;BME280;75982;52.834;13.846;2024-02-23T07:03:24;98848.94;;;7.00;63.30
85545;BME280;75982;52.834;13.846;2024-02-23T07:05:52;98855.59;;;7.04;63.96
85545;BME280;75982;52.834;13.846;2024-02-23T07:08:19;98854.88;;;7.02;62.79
85545;BME280;75982;52.834;13.846;2024-02-23T07:10:45;98853.81;;;7.04;62.39
85545;BME280;75982;52.834;13.846;2024-02-23T07:13:12;98867.63;;;7.05;62.53
85545;BME280;75982;52.834;13.846;2024-02-23T07:15:39;98887.81;;;7.12;63.03
85545;BME280;75982;52.834;13.846;2024-02-23T07:18:06;98880.66;;;7.03;63.41
85545;BME280;75982;52.834;13.846;2024-02-23T07:20:33;98875.56;;;6.89;63.75
85545;BME280;75982;52.834;13.846;2024-02-23T07:23:01;98876.50;;;6.88;63.64
85545;BME280;75982;52.834;13.846;2024-02-23T07:25:28;98883.25;;;6.91;62.96
85545;BME280;75982;52.834;13.846;2024-02-23T07:27:55;98890.59;;;6.97;63.41
85545;BME280;75982;52.834;13.846;2024-02-23T07:30:22;98915.47;;;6.99;63.47
85545;BME280;75982;52.834;13.846;2024-02-23T07:32:49;98904.81;;;7.04;63.11
85545;BME280;75982;52.834;13.846;2024-02-23T07:35:19;98895.91;;;7.08;63.12
85545;BME280;75982;52.834;13.846;2024-02-23T07:37:46;98895.34;;;7.03;63.43
85545;BME280;75982;52.834;13.846;2024-02-23T07:40:14;98906.47;;;7.05;63.52
85545;BME280;75982;52.834;13.846;2024-02-23T07:42:45;98923.06;;;7.15;63.20
85545;BME280;75982;52.834;13.846;2024-02-23T07:45:12;98911.97;;;7.25;63.14
85545;BME280;75982;52.834;13.846;2024-02-23T07:47:39;98908.66;;;7.36;63.08
85545;BME280;75982;52.834;13.846;2024-02-23T07:50:07;98917.88;;;7.40;63.71
85545;BME280;75982;52.834;13.846;2024-02-23T07:52:34;98927.31;;;7.41;63.88
85545;BME280;75982;52.834;13.846;2024-02-23T07:55:01;98932.50;;;7.29;64.31
85545;BME280;75982;52.834;13.846;2024-02-23T07:57:29;98925.03;;;7.24;62.13
85545;BME280;75982;52.834;13.846;2024-02-23T07:59:55;98930.00;;;7.27;64.05
85545;BME280;75982;52.834;13.846;2024-02-23T08:02:22;98928.56;;;7.23;63.60
85545;BME280;75982;52.834;13.846;2024-02-23T08:04:49;98931.44;;;7.18;62.00
85545;BME280;75982;52.834;13.846;2024-02-23T08:07:16;98930.72;;;7.16;62.91
85545;BME280;75982;52.834;13.846;2024-02-23T08:09:43;98944.19;;;7.21;63.46
85545;BME280;75982;52.834;13.846;2024-02-23T08:12:09;98946.28;;;7.29;62.77
85545;BME280;75982;52.834;13.846;2024-02-23T08:14:38;98950.75;;;7.40;63.18
85545;BME280;75982;52.834;13.846;2024-02-23T08:17:05;98968.66;;;7.30;63.60
85545;BME280;75982;52.834;13.846;2024-02-23T08:19:31;98972.09;;;7.31;62.60
85545;BME280;75982;52.834;13.846;2024-02-23T08:21:58;98965.78;;;7.47;62.13
85545;BME280;75982;52.834;13.846;2024-02-23T08:24:25;98965.78;;;7.72;62.38
85545;BME280;75982;52.834;13.846;2024-02-23T08:26:52;98982.38;;;7.95;60.69
85545;BME280;75982;52.834;13.846;2024-02-23T08:29:18;98991.78;;;8.09;60.57
85545;BME280;75982;52.834;13.846;2024-02-23T08:31:47;98983.25;;;8.19;60.58
85545;BME280;75982;52.834;13.846;2024-02-23T08:34:13;98988.69;;;8.53;59.39
85545;BME280;75982;52.834;13.846;2024-02-23T08:36:40;98990.00;;;8.58;57.63
85545;BME280;75982;52.834;13.846;2024-02-23T08:39:07;99001.59;;;8.78;57.91
85545;BME280;75982;52.834;13.846;2024-02-23T08:41:34;99006.78;;;8.78;57.06
85545;BME280;75982;52.834;13.846;2024-02-23T08:44:00;99010.81;;;8.82;57.00
85545;BME280;75982;52.834;13.846;2024-02-23T08:46:27;99010.16;;;8.67;56.12
85545;BME280;75982;52.834;13.846;2024-02-23T08:48:55;99013.03;;;8.76;56.88
85545;BME280;75982;52.834;13.846;2024-02-23T08:51:22;99019.25;;;8.73;57.07
85545;BME280;75982;52.834;13.846;2024-02-23T08:53:49;99024.22;;;8.52;56.31
85545;BME280;75982;52.834;13.846;2024-02-23T08:56:16;99013.63;;;8.43;55.81
85545;BME280;75982;52.834;13.846;2024-02-23T08:58:43;99026.44;;;8.46;56.43
85545;BME280;75982;52.834;13.846;2024-02-23T09:01:12;99013.88;;;8.40;56.02
85545;BME280;75982;52.834;13.846;2024-02-23T09:03:39;99027.13;;;8.60;56.76
85545;BME280;75982;52.834;13.846;2024-02-23T09:06:07;99024.44;;;8.73;56.56
85545;BME280;75982;52.834;13.846;2024-02-23T09:08:34;99037.63;;;8.83;55.78
85545;BME280;75982;52.834;13.846;2024-02-23T09:11:01;99042.75;;;8.95;55.96
85545;BME280;75982;52.834;13.846;2024-02-23T09:13:28;99044.84;;;9.14;56.38
85545;BME280;75982;52.834;13.846;2024-02-23T09:15:54;99045.34;;;9.19;54.67
85545;BME280;75982;52.834;13.846;2024-02-23T09:18:23;99052.34;;;9.30;54.04
85545;BME280;75982;52.834;13.846;2024-02-23T09:20:50;99061.31;;;9.49;54.54
85545;BME280;75982;52.834;13.846;2024-02-23T09:23:18;99070.81;;;9.73;53.78
85545;BME280;75982;52.834;13.846;2024-02-23T09:25:45;99070.91;;;9.60;53.18
85545;BME280;75982;52.834;13.846;2024-02-23T09:28:12;99057.03;;;9.48;53.72
85545;BME280;75982;52.834;13.846;2024-02-23T09:30:39;99066.13;;;9.43;54.22
85545;BME280;75982;52.834;13.846;2024-02-23T09:33:05;99063.50;;;9.32;53.78
85545;BME280;75982;52.834;13.846;2024-02-23T09:35:32;99066.19;;;9.30;53.09
85545;BME280;75982;52.834;13.846;2024-02-23T09:37:59;99075.69;;;9.42;53.59
85545;BME280;75982;52.834;13.846;2024-02-23T09:40:28;99075.47;;;9.45;54.31
85545;BME280;75982;52.834;13.846;2024-02-23T09:42:56;99076.25;;;9.35;54.64
85545;BME280;75982;52.834;13.846;2024-02-23T09:45:24;99075.09;;;9.74;54.82
85545;BME280;75982;52.834;13.846;2024-02-23T09:47:52;99085.72;;;9.71;54.48
85545;BME280;75982;52.834;13.846;2024-02-23T09:50:19;99075.28;;;9.59;53.75
85545;BME280;75982;52.834;13.846;2024-02-23T09:52:50;99096.22;;;9.58;55.29
85545;BME280;75982;52.834;13.846;2024-02-23T09:55:17;99086.94;;;9.19;55.12
85545;BME280;75982;52.834;13.846;2024-02-23T09:57:47;99096.28;;;9.45;54.64
85545;BME280;75982;52.834;13.846;2024-02-23T10:00:16;99108.31;;;9.35;54.91
85545;BME280;75982;52.834;13.846;2024-02-23T10:02:43;99111.56;;;9.50;55.83
85545;BME280;75982;52.834;13.846;2024-02-23T10:05:11;99115.31;;;9.46;54.63
85545;BME280;75982;52.834;13.846;2024-02-23T10:07:40;99121.06;;;9.38;54.66
85545;BME280;75982;52.834;13.846;2024-02-23T10:10:07;99132.53;;;9.36;54.40
85545;BME280;75982;52.834;13.846;2024-02-23T10:12:34;99133.63;;;9.79;53.22
85545;BME280;75982;52.834;13.846;2024-02-23T10:15:02;99134.25;;;9.83;52.41
85545;BME280;75982;52.834;13.846;2024-02-23T10:17:29;99125.22;;;9.76;51.47
85545;BME280;75982;52.834;13.846;2024-02-23T10:19:59;99132.66;;;10.04;51.19
85545;BME280;75982;52.834;13.846;2024-02-23T10:22:26;99128.13;;;10.41;50.34
85545;BME280;75982;52.834;13.846;2024-02-23T10:24:52;99118.28;;;10.67;50.63
85545;BME280;75982;52.834;13.846;2024-02-23T10:27:21;99106.19;;;10.77;50.37
85545;BME280;75982;52.834;13.846;2024-02-23T10:29:49;99110.06;;;11.04;50.68
85545;BME280;75982;52.834;13.846;2024-02-23T10:32:18;99121.38;;;10.38;49.17
85545;BME280;75982;52.834;13.846;2024-02-23T10:34:47;99123.69;;;10.08;49.30
85545;BME280;75982;52.834;13.846;2024-02-23T10:37:14;99123.75;;;10.41;50.26
85545;BME280;75982;52.834;13.846;2024-02-23T10:39:41;99115.56;;;10.46;50.03
85545;BME280;75982;52.834;13.846;2024-02-23T10:42:09;99109.19;;;10.61;48.31
85545;BME280;75982;52.834;13.846;2024-02-23T10:44:37;99113.19;;;10.54;47.17
85545;BME280;75982;52.834;13.846;2024-02-23T10:47:04;99123.84;;;10.62;47.89
85545;BME280;75982;52.834;13.846;2024-02-23T10:49:33;99110.22;;;10.70;46.33
85545;BME280;75982;52.834;13.846;2024-02-23T10:52:01;99105.72;;;10.72;46.42
85545;BME280;75982;52.834;13.846;2024-02-23T10:54:31;99115.91;;;10.63;46.19
85545;BME280;75982;52.834;13.846;2024-02-23T10:56:58;99119.59;;;10.72;47.29
85545;BME280;75982;52.834;13.846;2024-02-23T10:59:26;99121.25;;;10.40;47.92
85545;BME280;75982;52.834;13.846;2024-02-23T11:01:54;99124.81;;;10.61;47.15
85545;BME280;75982;52.834;13.846;2024-02-23T11:04:23;99121.38;;;10.60;47.18
85545;BME280;75982;52.834;13.846;2024-02-23T11:06:52;99122.34;;;10.02;46.74
85545;BME280;75982;52.834;13.846;2024-02-23T11:09:21;99134.50;;;10.81;47.08
85545;BME280;75982;52.834;13.846;2024-02-23T11:11:52;99134.25;;;10.84;48.35
85545;BME280;75982;52.834;13.846;2024-02-23T11:14:29;99128.13;;;10.63;48.89
85545;BME280;75982;52.834;13.846;2024-02-23T11:16:56;99129.03;;;10.84;49.20
85545;BME280;75982;52.834;13.846;2024-02-23T11:19:32;99132.00;;;11.02;46.94
85545;BME280;75982;52.834;13.846;2024-02-23T11:22:01;99130.91;;;11.04;47.54
85545;BME280;75982;52.834;13.846;2024-02-23T11:24:28;99124.41;;;10.88;47.92
85545;BME280;75982;52.834;13.846;2024-02-23T11:26:56;99146.81;;;10.90;46.50
85545;BME280;75982;52.834;13.846;2024-02-23T11:29:26;99144.91;;;10.92;47.30
85545;BME280;75982;52.834;13.846;2024-02-23T11:31:52;99138.44;;;10.65;46.74
85545;BME280;75982;52.834;13.846;2024-02-23T11:34:22;99136.22;;;11.14;47.32
85545;BME280;75982;52.834;13.846;2024-02-23T11:36:50;99135.16;;;11.17;47.46
85545;BME280;75982;52.834;13.846;2024-02-23T11:39:19;99141.34;;;11.47;47.54
85545;BME280;75982;52.834;13.846;2024-02-23T11:41:48;99137.16;;;11.56;47.72
85545;BME280;75982;52.834;13.846;2024-02-23T11:44:15;99139.84;;;11.77;47.03
85545;BME280;75982;52.834;13.846;2024-02-23T11:46:41;99144.19;;;11.87;47.25
85545;BME280;75982;52.834;13.846;2024-02-23T11:49:08;99144.69;;;11.81;47.17
85545;BME280;75982;52.834;13.846;2024-02-23T11:51:35;99149.34;;;12.19;46.94
85545;BME280;75982;52.834;13.846;2024-02-23T11:54:02;99146.22;;;12.04;45.87
85545;BME280;75982;52.834;13.846;2024-02-23T11:56:30;99141.38;;;12.00;46.29
85545;BME280;75982;52.834;13.846;2024-02-23T11:58:57;99149.09;;;12.22;46.10
85545;BME280;75982;52.834;13.846;2024-02-23T12:01:24;99145.75;;;12.20;46.29
85545;BME280;75982;52.834;13.846;2024-02-23T12:03:51;99148.94;;;12.24;46.28
85545;BME280;75982;52.834;13.846;2024-02-23T12:06:17;99153.28;;;12.14;46.13
85545;BME280;75982;52.834;13.846;2024-02-23T12:08:45;99154.06;;;12.04;46.86
85545;BME280;75982;52.834;13.846;2024-02-23T12:11:12;99161.66;;;12.07;46.73
85545;BME280;75982;52.834;13.846;2024-02-23T12:13:40;99169.41;;;11.98;47.43
85545;BME280;75982;52.834;13.846;2024-02-23T12:16:07;99164.81;;;12.11;46.89
85545;BME280;75982;52.834;13.846;2024-02-23T12:18:34;99162.72;;;12.05;47.43
85545;BME280;75982;52.834;13.846;2024-02-23T12:21:02;99166.97;;;12.06;46.71
85545;BME280;75982;52.834;13.846;2024-02-23T12:23:38;99178.56;;;11.92;46.18
85545;BME280;75982;52.834;13.846;2024-02-23T12:26:05;99183.75;;;11.72;44.62
85545;BME280;75982;52.834;13.846;2024-02-23T12:28:32;99172.56;;;11.81;45.22
85545;BME280;75982;52.834;13.846;2024-02-23T12:31:01;99178.88;;;11.67;45.76
85545;BME280;75982;52.834;13.846;2024-02-23T12:33:28;99179.84;;;11.66;44.61
85545;BME280;75982;52.834;13.846;2024-02-23T12:35:56;99176.84;;;11.82;45.29
85545;BME280;75982;52.834;13.846;2024-02-23T12:38:22;99182.50;;;11.87;46.36
85545;BME280;75982;52.834;13.846;2024-02-23T12:40:49;99181.25;;;11.81;46.11
85545;BME280;75982;52.834;13.846;2024-02-23T12:43:17;99183.75;;;11.72;45.98
85545;BME280;75982;52.834;13.846;2024-02-23T12:45:43;99190.44;;;11.53;47.10
85545;BME280;75982;52.834;13.846;2024-02-23T12:48:12;99185.16;;;11.22;46.50
85545;BME280;75982;52.834;13.846;2024-02-23T12:50:38;99184.19;;;11.34;48.50
85545;BME280;75982;52.834;13.846;2024-02-23T12:53:05;99193.72;;;11.24;47.88
85545;BME280;75982;52.834;13.846;2024-02-23T12:55:32;99194.00;;;11.41;48.46
85545;BME280;75982;52.834;13.846;2024-02-23T12:57:59;99208.50;;;11.34;48.24